Terminal Aerodrome Forecast
Issued by NWS

Home | Current Version | Previous Version | Text Only | Print | Product List | Glossary On
Versions: 1 2 3 4 5 6 7 8 9 10 11 12
000
FTUS46 KLOX 302340
TAFPRB
TAF
KPRB 302340Z 0100/0124 21018G25KT P6SM SCT250
     FM010300 20009KT P6SM SCT250
     FM010600 VRB03KT P6SM SCT250
     FM011800 23007KT P6SM BKN250
     FM012100 21016G23KT P6SM SCT250=

USA.gov is the U.S. government's official web portal to all federal, state and local government web resources and services.